Detall de PIREP

Printer-friendly versionPDF version

[2013/09/13 06:41:00]
Flight IATA:CT3226
Pilot Number:012
Company ICAO:CAT
Aircraft Type:B752/E
PAX:180
Aircraft Registration:PAX
Departing Airport: LEPA
Destination Airport: EGLL
Alternate Airport:EGKK
Online: VATSIM
Route:DRAGO UN863 TIRAV UN490 TERPO UP87 DOMUT
Flight Level:F340
No Slew and time accel
No pause
Crash detect
Detect pilot in Cockpit between each 30 and 45 minutes
06:41 Zero fuel Weight: 171928 Lbs, Fuel Weight: 23734 Lbs
06:41 VATSIM:LEPA 130630Z VRB02KT 9999 FEW025 18/16 Q1022 NOSIG
06:41 VATSIM:EGLL 130620Z 24006KT 3600 BR OVC004 17/16 Q1018
06:41 VOICE CATALONIAN
06:41 Parking Brakes off
06:45 Take-off
06:45 Take off Weight: 194926 Lbs
06:45 Wind: 341º @ 003 Knots Heading: 239º
06:45 POS N39º 33´ 22´´ E002º 43´ 46´´
06:45 Gear Up: 184 Knots
06:45 Flaps:2 at 184 Knots
06:45 Flaps:1 at 197 Knots
06:46 Flaps:0 at 208 Knots
06:56 TOC
06:56 Fuel Weight: 19477 Lb
07:00 Wind:007º@025 Knots Heading: 331º Ground Speed: 445 Knots Altitude 34265 ft
07:15 Wind:342º@025 Knots Heading: 354º Ground Speed: 441 Knots Altitude 34301 ft
07:30 Wind:327º@032 Knots Heading: 334º Ground Speed: 434 Knots Altitude 34317 ft
07:45 Wind:313º@023 Knots Heading: 321º Ground Speed: 447 Knots Altitude 34317 ft
08:00 Wind:304º@041 Knots Heading: 331º Ground Speed: 430 Knots Altitude 34288 ft
08:15 Wind:301º@034 Knots Heading: 009º Ground Speed: 453 Knots Altitude 34232 ft
08:20 TOD
08:20 Fuel Weight: 8632 Lb
08:30 Wind:285º@020 Knots Heading: 021º Ground Speed: 362 Knots Altitude 14616 ft
08:41 Flaps:1 at 207 Knots
08:41 Flaps:2 at 195 Knots
08:41 Flaps:3 at 190 Knots
08:42 Flaps:4 at 175 Knots
08:42 Gear Down: 165 Knots
08:43 Flaps:5 at 148 Knots
08:43 Flaps:6 at 143 Knots
08:45 Wind:276º@006 Knots Heading: 272º Ground Speed:136 Knots Altitude 1952 ft
08:47 TouchDown:Rate -241 ft/min Speed: 128 Knots
08:48 VATSIM:EGLL 130820Z 28007KT 5000 BR FEW004 BKN005 BKN008 18/17 Q1018
08:48 Land
08:48 Wind:281º@006 Knots
08:48 Heading: 269º
08:48 Flight Duration: 02:03
08:48 Landing Weight: 178335 Lbs
08:48 POS N51º 27´ 53´´ W000º 27´ 19´´
08:51 Parking brakes on
08:51 Block to Block Duration: 02:10
08:51 Final Fuel: 6106 Lbls
08:51 Spent Fuel: 17627 Lbls
08:51 Flight Length: 822 NM
08:51 TOD Land Length: 136 NM

Exportar CSV

Powered by Drupal - Modified by Danger4k